createdAt,value
2018-12-06T00:00:05.817Z,77.86
2018-12-06T00:02:34.865Z,77.93
2018-12-06T00:05:03.924Z,77.92
2018-12-06T00:07:33.006Z,78.10
2018-12-06T00:10:02.056Z,78.16
2018-12-06T00:12:31.117Z,78.03
2018-12-06T00:15:07.949Z,78.14
2018-12-06T00:17:37.004Z,78.00
2018-12-06T00:20:06.065Z,77.96
2018-12-06T00:22:35.148Z,78.02
2018-12-06T00:25:05.161Z,78.24
2018-12-06T00:27:34.214Z,78.35
2018-12-06T00:30:11.701Z,78.15
2018-12-06T00:32:40.745Z,78.19
2018-12-06T00:35:09.787Z,78.17
2018-12-06T00:37:38.863Z,78.53
2018-12-06T00:40:07.917Z,78.47
2018-12-06T00:42:36.961Z,78.50
2018-12-06T00:45:06.035Z,78.85
2018-12-06T00:47:35.094Z,78.70
2018-12-06T00:50:04.136Z,78.70
2018-12-06T00:52:33.228Z,78.64
2018-12-06T00:55:02.280Z,78.48
2018-12-06T00:57:31.338Z,78.47
2018-12-06T01:00:00.417Z,78.35
2018-12-06T01:02:29.506Z,78.25
2018-12-06T01:05:13.015Z,78.10
2018-12-06T01:07:42.061Z,77.96
2018-12-06T01:10:11.123Z,77.92
2018-12-06T01:12:40.332Z,77.84
2018-12-06T01:15:09.386Z,77.95
2018-12-06T01:17:38.452Z,77.99
2018-12-06T01:20:07.527Z,77.98
2018-12-06T01:22:36.580Z,77.93
2018-12-06T01:25:05.643Z,78.00
2018-12-06T01:27:34.732Z,78.05
2018-12-06T01:30:03.792Z,77.92
2018-12-06T01:32:32.840Z,77.77
2018-12-06T01:35:06.175Z,77.50
2018-12-06T01:37:35.268Z,77.49
2018-12-06T01:40:04.328Z,77.47
2018-12-06T01:42:33.493Z,77.68
2018-12-06T01:45:22.726Z,77.67
2018-12-06T01:47:51.807Z,77.37
2018-12-06T01:50:20.888Z,77.35
2018-12-06T01:52:49.911Z,77.24
2018-12-06T01:55:19.023Z,77.09
2018-12-06T01:57:48.072Z,77.41
2018-12-06T02:00:17.118Z,77.28
2018-12-06T02:02:46.200Z,77.63
2018-12-06T02:05:15.255Z,77.42
2018-12-06T02:07:44.311Z,77.31
2018-12-06T02:10:13.387Z,77.33
2018-12-06T02:12:42.437Z,77.17
2018-12-06T02:15:18.624Z,77.11
2018-12-06T02:17:47.676Z,77.06
2018-12-06T02:20:16.742Z,77.10
2018-12-06T02:22:45.830Z,77.38
2018-12-06T02:25:14.894Z,77.06
2018-12-06T02:27:43.957Z,77.12
2018-12-06T02:30:13.053Z,77.18
2018-12-06T02:32:42.101Z,77.08
2018-12-06T02:35:11.157Z,77.06
2018-12-06T02:37:40.261Z,77.05
2018-12-06T02:40:09.327Z,77.18
2018-12-06T02:42:38.383Z,77.29
2018-12-06T02:45:25.473Z,77.29
2018-12-06T02:47:54.546Z,77.38
2018-12-06T02:50:23.614Z,77.13
2018-12-06T02:52:52.847Z,77.05
2018-12-06T02:55:21.910Z,76.99
2018-12-06T02:57:50.988Z,77.68
2018-12-06T03:00:20.108Z,78.45
2018-12-06T03:02:49.169Z,78.17
2018-12-06T03:05:18.232Z,78.54
2018-12-06T03:07:47.318Z,78.12
2018-12-06T03:10:16.387Z,78.25
2018-12-06T03:12:45.462Z,77.89
2018-12-06T03:15:14.567Z,78.17
2018-12-06T03:17:43.626Z,77.99
2018-12-06T03:20:12.690Z,77.89
2018-12-06T03:22:41.844Z,77.74
2018-12-06T03:25:10.909Z,77.65
2018-12-06T03:27:39.973Z,77.59
2018-12-06T03:30:09.058Z,77.60
2018-12-06T03:32:38.120Z,77.45
2018-12-06T03:35:07.188Z,77.49
2018-12-06T03:37:36.285Z,77.51
2018-12-06T03:40:05.345Z,77.56
2018-12-06T03:42:34.417Z,78.04
2018-12-06T03:45:03.515Z,77.81
2018-12-06T03:47:32.578Z,77.93
2018-12-06T03:50:01.623Z,77.88
2018-12-06T03:52:30.715Z,78.02
2018-12-06T03:55:00.766Z,77.81
2018-12-06T03:57:29.829Z,78.44
2018-12-06T03:59:58.932Z,78.26
2018-12-06T04:02:27.995Z,78.38
2018-12-06T04:04:58.092Z,78.20
2018-12-06T04:07:27.208Z,78.03
2018-12-06T04:09:56.260Z,78.19
2018-12-06T04:12:25.329Z,78.01
2018-12-06T04:14:54.417Z,77.90
2018-12-06T04:17:23.471Z,77.77
2018-12-06T04:19:52.524Z,77.87
2018-12-06T04:22:21.621Z,77.77
2018-12-06T04:24:50.674Z,77.73
2018-12-06T04:27:19.735Z,77.68
2018-12-06T04:29:48.819Z,77.73
2018-12-06T04:32:17.889Z,77.73
2018-12-06T04:34:46.961Z,77.76
2018-12-06T04:37:16.047Z,77.95
2018-12-06T04:39:45.133Z,78.37
2018-12-06T04:42:14.192Z,78.24
2018-12-06T04:44:43.326Z,78.93
2018-12-06T04:47:14.251Z,78.57
2018-12-06T04:49:41.441Z,78.48
2018-12-06T04:52:10.523Z,78.27
2018-12-06T04:54:39.579Z,78.13
2018-12-06T04:57:08.625Z,78.09
2018-12-06T04:59:37.710Z,78.01
2018-12-06T05:02:06.759Z,78.00
2018-12-06T05:04:35.815Z,77.98
2018-12-06T05:07:04.933Z,78.03
2018-12-06T05:09:34.018Z,77.95
2018-12-06T05:12:03.098Z,77.91
2018-12-06T05:14:32.184Z,78.09
2018-12-06T05:17:01.256Z,77.96
2018-12-06T05:19:30.319Z,78.33
2018-12-06T05:21:59.409Z,78.22
2018-12-06T05:24:28.471Z,78.10
2018-12-06T05:26:57.553Z,78.08
2018-12-06T05:29:26.682Z,78.11
2018-12-06T05:31:55.748Z,78.09
2018-12-06T05:34:24.813Z,78.29
2018-12-06T05:36:53.892Z,79.03
2018-12-06T05:39:22.946Z,79.03
2018-12-06T05:41:52.028Z,78.76
2018-12-06T05:44:21.103Z,78.76
2018-12-06T05:46:50.167Z,79.19
2018-12-06T05:49:19.215Z,78.85
2018-12-06T05:51:48.343Z,78.67
2018-12-06T05:54:17.441Z,79.43
2018-12-06T05:56:46.486Z,79.32
2018-12-06T05:59:15.893Z,79.45
2018-12-06T06:01:44.952Z,79.13
2018-12-06T06:04:14.026Z,79.27
2018-12-06T06:06:43.123Z,79.77
2018-12-06T06:09:12.194Z,79.40
2018-12-06T06:11:41.256Z,79.71
2018-12-06T06:14:10.365Z,79.33
2018-12-06T06:16:39.458Z,79.18
2018-12-06T06:19:08.479Z,79.31
2018-12-06T06:21:37.565Z,79.12
2018-12-06T06:24:06.610Z,79.02
2018-12-06T06:26:35.672Z,79.02
2018-12-06T06:29:04.757Z,79.06
2018-12-06T06:31:33.838Z,78.93
2018-12-06T06:34:02.909Z,78.79
2018-12-06T06:36:31.999Z,78.77
2018-12-06T06:39:01.062Z,78.98
2018-12-06T06:41:30.109Z,78.96
2018-12-06T06:43:59.194Z,78.90
2018-12-06T06:46:28.263Z,78.78
2018-12-06T06:48:57.330Z,78.91
2018-12-06T06:51:26.420Z,78.70
2018-12-06T06:53:55.508Z,78.54
2018-12-06T06:56:24.576Z,78.41
2018-12-06T06:58:53.725Z,78.40
2018-12-06T07:01:23.027Z,78.29
2018-12-06T07:03:51.872Z,78.21
2018-12-06T07:06:20.982Z,78.08
2018-12-06T07:08:50.074Z,78.05
2018-12-06T07:11:19.137Z,78.05
2018-12-06T07:13:48.291Z,78.08
2018-12-06T07:16:17.377Z,77.97
2018-12-06T07:18:46.456Z,77.89
2018-12-06T07:21:15.659Z,77.75
2018-12-06T07:23:44.707Z,77.78
2018-12-06T07:26:13.788Z,77.70
2018-12-06T07:28:42.978Z,77.38
2018-12-06T07:31:12.110Z,77.25
2018-12-06T07:33:41.160Z,77.16
2018-12-06T07:36:10.258Z,77.17
2018-12-06T07:38:39.320Z,76.67
2018-12-06T07:41:08.395Z,76.64
2018-12-06T07:43:37.546Z,76.20
2018-12-06T07:46:08.585Z,76.04
2018-12-06T07:48:39.426Z,74.99
2018-12-06T07:51:06.741Z,75.10
2018-12-06T07:53:35.827Z,74.81
2018-12-06T07:56:04.917Z,74.35
2018-12-06T07:58:33.985Z,73.98
2018-12-06T08:01:03.049Z,73.96
2018-12-06T08:03:32.100Z,74.10
2018-12-06T08:06:01.222Z,73.48
2018-12-06T08:08:30.282Z,72.89
2018-12-06T08:11:00.110Z,72.61
2018-12-06T08:13:29.214Z,72.75
2018-12-06T08:15:58.702Z,72.50
2018-12-06T08:18:27.759Z,72.06
2018-12-06T08:20:56.834Z,71.98
2018-12-06T08:23:25.884Z,71.21
2018-12-06T08:25:54.951Z,70.74
2018-12-06T08:28:24.055Z,70.04
2018-12-06T08:30:53.114Z,69.69
2018-12-06T08:33:22.161Z,69.20
2018-12-06T08:35:51.264Z,68.68
2018-12-06T08:38:20.322Z,67.94
2018-12-06T08:40:49.398Z,68.10
2018-12-06T08:43:18.462Z,67.22
2018-12-06T08:45:47.748Z,67.26
2018-12-06T08:48:16.585Z,67.17
2018-12-06T08:50:45.707Z,67.19
2018-12-06T08:53:14.775Z,66.92
2018-12-06T08:55:43.836Z,66.86
2018-12-06T08:58:13.658Z,66.33
2018-12-06T09:00:42.711Z,66.13
2018-12-06T09:03:11.775Z,66.15
2018-12-06T09:05:41.784Z,65.73
2018-12-06T09:08:10.986Z,65.90
2018-12-06T09:10:40.985Z,65.77
2018-12-06T09:13:10.103Z,65.83
2018-12-06T09:15:53.708Z,65.18
2018-12-06T09:18:22.859Z,64.87
2018-12-06T09:20:51.851Z,64.59
2018-12-06T09:23:20.915Z,64.39
2018-12-06T09:25:50.012Z,64.40
2018-12-06T09:28:19.067Z,64.24
2018-12-06T09:30:48.138Z,63.88
2018-12-06T09:33:17.263Z,64.01
2018-12-06T09:35:46.313Z,64.17
2018-12-06T09:38:15.385Z,63.80
2018-12-06T09:40:44.492Z,63.72
2018-12-06T09:43:13.579Z,63.80
2018-12-06T09:45:43.670Z,63.46
2018-12-06T09:48:12.744Z,63.70
2018-12-06T09:50:41.815Z,63.69
2018-12-06T09:53:10.886Z,63.85
2018-12-06T09:55:39.989Z,63.50
2018-12-06T09:58:09.061Z,63.62
2018-12-06T10:00:38.117Z,63.74
2018-12-06T10:03:07.207Z,63.48
2018-12-06T10:05:46.842Z,63.55
2018-12-06T10:08:15.925Z,63.16
2018-12-06T10:10:44.986Z,62.96
2018-12-06T10:13:14.038Z,62.93
2018-12-06T10:15:43.124Z,62.90
2018-12-06T10:18:12.214Z,62.65
2018-12-06T10:20:41.285Z,62.66
2018-12-06T10:23:10.372Z,62.09
2018-12-06T10:25:40.470Z,62.29
2018-12-06T10:28:09.528Z,62.39
2018-12-06T10:30:38.679Z,62.07
2018-12-06T10:33:07.725Z,61.98
2018-12-06T10:35:36.780Z,62.01
2018-12-06T10:38:05.913Z,61.74
2018-12-06T10:40:34.958Z,61.75
2018-12-06T10:43:04.005Z,61.54
2018-12-06T10:45:33.079Z,61.67
2018-12-06T10:48:02.133Z,61.51
2018-12-06T10:50:31.188Z,61.66
2018-12-06T10:53:00.264Z,61.74
2018-12-06T10:55:29.308Z,61.73
2018-12-06T10:57:58.377Z,61.66
2018-12-06T11:00:33.235Z,61.55
2018-12-06T11:03:03.108Z,61.57
2018-12-06T11:05:32.168Z,61.92
2018-12-06T11:08:01.259Z,61.79
2018-12-06T11:10:30.334Z,61.92
2018-12-06T11:12:59.386Z,61.83
2018-12-06T11:15:28.468Z,61.84
2018-12-06T11:17:57.520Z,62.02
2018-12-06T11:20:26.579Z,61.90
2018-12-06T11:22:55.913Z,62.17
2018-12-06T11:25:24.965Z,62.08
2018-12-06T11:27:54.021Z,61.96
2018-12-06T11:30:23.248Z,62.05
2018-12-06T11:32:52.289Z,62.11
2018-12-06T11:35:21.342Z,62.05
2018-12-06T11:37:50.430Z,62.12
2018-12-06T11:40:19.484Z,62.41
2018-12-06T11:42:48.556Z,62.36
2018-12-06T11:45:17.682Z,62.33
2018-12-06T11:47:46.750Z,62.39
2018-12-06T11:50:15.793Z,62.13
2018-12-06T11:52:44.893Z,62.09
2018-12-06T11:55:13.963Z,62.12
2018-12-06T11:57:42.996Z,62.08
2018-12-06T12:00:12.083Z,62.13
2018-12-06T12:02:41.124Z,62.36
2018-12-06T12:05:10.169Z,62.45
2018-12-06T12:07:40.091Z,62.43
2018-12-06T12:10:09.160Z,62.40
2018-12-06T12:12:38.206Z,62.44
2018-12-06T12:15:07.299Z,62.42
2018-12-06T12:17:36.367Z,62.38
2018-12-06T12:20:05.557Z,62.34
2018-12-06T12:22:34.523Z,62.15
2018-12-06T12:25:03.585Z,62.18
2018-12-06T12:27:32.637Z,62.10
2018-12-06T12:30:01.729Z,61.95
2018-12-06T12:32:30.791Z,61.89
2018-12-06T12:34:59.853Z,61.83
2018-12-06T12:37:29.219Z,61.64
2018-12-06T12:39:58.286Z,61.47
2018-12-06T12:42:27.338Z,61.39
2018-12-06T12:44:56.429Z,61.43
2018-12-06T12:47:25.518Z,61.25
2018-12-06T12:49:54.559Z,61.36
2018-12-06T12:52:23.650Z,61.26
2018-12-06T12:54:52.693Z,61.37
2018-12-06T12:57:21.766Z,61.37
2018-12-06T12:59:50.845Z,61.38
2018-12-06T13:02:19.900Z,61.32
2018-12-06T13:04:48.957Z,61.18
2018-12-06T13:07:18.051Z,61.34
2018-12-06T13:09:47.126Z,61.32
2018-12-06T13:12:16.190Z,61.22
2018-12-06T13:14:45.321Z,61.23
2018-12-06T13:17:14.372Z,61.21
2018-12-06T13:19:43.434Z,61.21
2018-12-06T13:22:12.524Z,61.19
2018-12-06T13:24:41.572Z,61.13
2018-12-06T13:27:10.621Z,61.02
2018-12-06T13:29:39.698Z,61.01
2018-12-06T13:32:08.765Z,60.69
2018-12-06T13:34:37.832Z,60.59
2018-12-06T13:37:06.941Z,60.59
2018-12-06T13:39:36.004Z,60.54
2018-12-06T13:42:05.085Z,60.59
2018-12-06T13:44:34.168Z,60.54
2018-12-06T13:47:03.252Z,60.55
2018-12-06T13:49:32.301Z,60.62
2018-12-06T13:52:01.388Z,60.63
2018-12-06T13:54:30.446Z,60.69
2018-12-06T13:56:59.503Z,60.73
2018-12-06T13:59:28.645Z,60.83
2018-12-06T14:01:57.708Z,60.92
2018-12-06T14:04:26.763Z,60.95
2018-12-06T14:06:55.961Z,61.04
2018-12-06T14:09:25.012Z,61.10
2018-12-06T14:11:54.086Z,61.02
2018-12-06T14:14:23.166Z,61.11
2018-12-06T14:16:52.212Z,61.18
2018-12-06T14:19:21.268Z,61.26
2018-12-06T14:21:50.365Z,61.35
2018-12-06T14:24:19.425Z,61.40
2018-12-06T14:26:48.495Z,61.52
2018-12-06T14:29:17.667Z,61.65
2018-12-06T14:31:46.718Z,61.82
2018-12-06T14:34:15.757Z,61.90
2018-12-06T14:36:44.849Z,62.10
2018-12-06T14:39:13.911Z,62.23
2018-12-06T14:41:42.970Z,62.36
2018-12-06T14:44:12.075Z,62.56
2018-12-06T14:46:41.157Z,62.67
2018-12-06T14:49:10.227Z,62.92
2018-12-06T14:51:39.314Z,62.89
2018-12-06T14:54:08.376Z,63.11
2018-12-06T14:56:37.422Z,63.27
2018-12-06T14:59:06.509Z,63.28
2018-12-06T15:01:35.566Z,63.37
2018-12-06T15:04:04.628Z,63.69
2018-12-06T15:06:37.553Z,63.83
2018-12-06T15:09:02.783Z,63.97
2018-12-06T15:11:31.839Z,63.96
2018-12-06T15:14:00.936Z,63.98
2018-12-06T15:16:30.016Z,64.29
2018-12-06T15:18:59.062Z,64.20
2018-12-06T15:21:28.139Z,64.34
2018-12-06T15:23:57.186Z,64.36
2018-12-06T15:26:26.235Z,64.48
2018-12-06T15:28:55.437Z,64.55
2018-12-06T15:31:24.508Z,64.82
2018-12-06T15:33:53.570Z,64.89
2018-12-06T15:36:22.658Z,64.82
2018-12-06T15:38:51.712Z,64.95
2018-12-06T15:41:20.765Z,65.03
2018-12-06T15:43:49.929Z,65.36
2018-12-06T15:46:18.915Z,65.32
2018-12-06T15:48:47.981Z,65.38
2018-12-06T15:51:17.178Z,65.47
2018-12-06T15:53:46.227Z,65.51
2018-12-06T15:56:15.288Z,65.72
2018-12-06T15:58:44.376Z,65.88
2018-12-06T16:01:13.454Z,65.88
2018-12-06T16:03:42.524Z,65.92
2018-12-06T16:06:11.606Z,65.82
2018-12-06T16:08:40.668Z,65.73
2018-12-06T16:11:09.741Z,65.68
2018-12-06T16:13:38.863Z,65.62
2018-12-06T16:16:07.929Z,65.55
2018-12-06T16:18:36.992Z,65.55
2018-12-06T16:21:06.071Z,65.47
2018-12-06T16:23:35.130Z,65.46
2018-12-06T16:26:04.187Z,65.47
2018-12-06T16:28:33.284Z,65.41
2018-12-06T16:31:02.345Z,65.44
2018-12-06T16:33:31.394Z,65.37
2018-12-06T16:36:00.504Z,65.45
2018-12-06T16:38:29.604Z,65.44
2018-12-06T16:40:58.641Z,65.46
2018-12-06T16:43:27.722Z,65.43
2018-12-06T16:45:56.773Z,65.74
2018-12-06T16:48:25.825Z,65.58
2018-12-06T16:50:54.919Z,65.52
2018-12-06T16:53:23.984Z,65.49
2018-12-06T16:55:53.049Z,65.35
2018-12-06T16:58:22.178Z,65.41
2018-12-06T17:00:51.237Z,65.34
2018-12-06T17:03:20.289Z,65.06
2018-12-06T17:05:49.377Z,64.96
2018-12-06T17:08:18.450Z,64.89
2018-12-06T17:10:47.491Z,64.83
2018-12-06T17:13:16.594Z,64.97
2018-12-06T17:15:45.657Z,64.87
2018-12-06T17:18:14.735Z,64.85
2018-12-06T17:20:43.873Z,64.83
2018-12-06T17:23:12.944Z,64.84
2018-12-06T17:25:42.009Z,65.17
2018-12-06T17:28:11.091Z,65.23
2018-12-06T17:30:40.152Z,65.47
2018-12-06T17:33:09.218Z,65.65
2018-12-06T17:35:38.308Z,65.80
2018-12-06T17:38:07.374Z,66.20
2018-12-06T17:40:36.435Z,66.33
2018-12-06T17:43:05.540Z,66.67
2018-12-06T17:45:34.594Z,66.82
2018-12-06T17:48:03.645Z,67.03
2018-12-06T17:50:32.735Z,67.33
2018-12-06T17:53:01.781Z,67.74
2018-12-06T17:55:30.841Z,67.75
2018-12-06T17:57:59.936Z,67.83
2018-12-06T18:00:29.014Z,68.23
2018-12-06T18:02:58.070Z,68.30
2018-12-06T18:05:27.403Z,68.61
2018-12-06T18:07:56.456Z,69.16
2018-12-06T18:10:25.517Z,69.44
2018-12-06T18:12:54.615Z,69.44
2018-12-06T18:15:23.672Z,69.44
2018-12-06T18:17:52.715Z,69.62
2018-12-06T18:20:21.871Z,69.78
2018-12-06T18:22:50.931Z,70.03
2018-12-06T18:25:22.071Z,69.99
2018-12-06T18:27:51.135Z,70.03
2018-12-06T18:30:20.191Z,70.33
2018-12-06T18:32:49.273Z,70.23
2018-12-06T18:35:18.346Z,70.46
2018-12-06T18:37:47.417Z,70.80
2018-12-06T18:40:16.526Z,70.82
2018-12-06T18:42:45.590Z,71.26
2018-12-06T18:45:14.654Z,71.22
2018-12-06T18:47:43.774Z,71.23
2018-12-06T18:50:12.831Z,71.06
2018-12-06T18:52:41.895Z,71.26
2018-12-06T18:55:11.067Z,71.44
2018-12-06T18:57:40.047Z,71.62
2018-12-06T19:00:09.139Z,71.94
2018-12-06T19:02:38.230Z,71.83
2018-12-06T19:05:07.293Z,71.83
2018-12-06T19:07:36.362Z,71.89
2018-12-06T19:10:05.479Z,71.89
2018-12-06T19:12:34.537Z,71.98
2018-12-06T19:15:03.619Z,72.05
2018-12-06T19:17:32.693Z,72.04
2018-12-06T19:20:01.750Z,72.24
2018-12-06T19:22:30.826Z,72.35
2018-12-06T19:24:59.915Z,72.38
2018-12-06T19:27:28.976Z,72.73
2018-12-06T19:29:58.025Z,72.52
2018-12-06T19:32:27.135Z,72.90
2018-12-06T19:34:56.195Z,73.18
2018-12-06T19:37:25.253Z,73.14
2018-12-06T19:39:54.323Z,73.27
2018-12-06T19:42:23.380Z,73.25
2018-12-06T19:44:53.391Z,73.62
2018-12-06T19:47:22.478Z,73.40
2018-12-06T19:49:51.918Z,73.66
2018-12-06T19:52:20.969Z,73.80
2018-12-06T19:54:50.111Z,74.08
2018-12-06T19:57:19.168Z,74.16
2018-12-06T19:59:48.232Z,74.34
2018-12-06T20:02:17.403Z,74.71
2018-12-06T20:04:46.475Z,74.42
2018-12-06T20:07:15.527Z,74.15
2018-12-06T20:09:44.615Z,74.01
2018-12-06T20:12:13.687Z,73.88
2018-12-06T20:14:42.756Z,74.31
2018-12-06T20:17:11.856Z,74.23
2018-12-06T20:19:40.937Z,74.36
2018-12-06T20:22:10.117Z,74.37
2018-12-06T20:24:39.204Z,74.10
2018-12-06T20:27:08.278Z,74.45
2018-12-06T20:29:37.339Z,74.42
2018-12-06T20:32:06.447Z,74.42
2018-12-06T20:34:35.513Z,74.52
2018-12-06T20:37:04.597Z,74.53
2018-12-06T20:39:33.734Z,74.55
2018-12-06T20:42:03.699Z,74.53
2018-12-06T20:44:32.759Z,74.52
2018-12-06T20:47:01.854Z,74.69
2018-12-06T20:49:30.926Z,74.47
2018-12-06T20:52:00.026Z,75.03
2018-12-06T20:54:29.068Z,74.79
2018-12-06T20:56:58.136Z,75.12
2018-12-06T20:59:27.209Z,75.14
2018-12-06T21:01:56.697Z,75.22
2018-12-06T21:04:25.751Z,75.08
2018-12-06T21:06:54.805Z,74.90
2018-12-06T21:09:23.897Z,75.51
2018-12-06T21:11:52.957Z,75.28
2018-12-06T21:14:22.234Z,75.31
2018-12-06T21:16:51.097Z,75.08
2018-12-06T21:19:20.155Z,74.82
2018-12-06T21:21:49.222Z,75.14
2018-12-06T21:24:18.316Z,75.12
2018-12-06T21:26:47.366Z,74.85
2018-12-06T21:29:16.429Z,75.04
2018-12-06T21:31:45.508Z,75.00
2018-12-06T21:34:14.559Z,75.21
2018-12-06T21:36:43.640Z,75.33
2018-12-06T21:39:12.747Z,75.49
2018-12-06T21:41:41.802Z,75.68
2018-12-06T21:44:10.861Z,75.75
2018-12-06T21:46:41.063Z,75.34
2018-12-06T21:49:10.169Z,76.21
2018-12-06T21:51:48.754Z,76.09
2018-12-06T21:54:16.596Z,75.74
2018-12-06T21:56:45.668Z,75.56
2018-12-06T21:59:14.734Z,75.06
2018-12-06T22:01:43.924Z,75.38
2018-12-06T22:04:12.988Z,75.90
2018-12-06T22:06:42.056Z,75.70
2018-12-06T22:09:11.134Z,75.88
2018-12-06T22:11:40.193Z,75.64
2018-12-06T22:14:09.247Z,75.61
2018-12-06T22:16:38.347Z,75.38
2018-12-06T22:19:07.421Z,75.34
2018-12-06T22:21:36.478Z,75.38
2018-12-06T22:24:05.580Z,75.54
2018-12-06T22:26:34.636Z,75.29
2018-12-06T22:29:03.703Z,75.62
2018-12-06T22:31:32.788Z,75.56
2018-12-06T22:34:01.862Z,75.86
2018-12-06T22:36:30.928Z,76.02
2018-12-06T22:39:00.074Z,76.33
2018-12-06T22:41:29.075Z,76.30
2018-12-06T22:43:58.137Z,76.03
2018-12-06T22:46:27.245Z,76.19
2018-12-06T22:48:56.295Z,76.18
2018-12-06T22:51:25.346Z,76.40
2018-12-06T22:53:54.428Z,76.23
2018-12-06T22:56:23.496Z,76.34
2018-12-06T22:58:52.555Z,76.18
2018-12-06T23:01:21.636Z,76.89
2018-12-06T23:03:50.700Z,76.98
2018-12-06T23:06:19.751Z,77.08
2018-12-06T23:08:48.876Z,77.05
2018-12-06T23:11:17.937Z,76.82
2018-12-06T23:13:47.001Z,77.31
2018-12-06T23:16:16.083Z,77.05
2018-12-06T23:18:45.126Z,77.24
2018-12-06T23:21:14.178Z,77.09
2018-12-06T23:23:43.262Z,77.02
2018-12-06T23:26:12.316Z,77.24
2018-12-06T23:28:41.365Z,77.23
2018-12-06T23:31:10.477Z,77.11
2018-12-06T23:33:39.543Z,77.08
2018-12-06T23:36:08.588Z,77.50
2018-12-06T23:38:37.705Z,77.42
2018-12-06T23:41:06.775Z,77.25
2018-12-06T23:43:35.835Z,77.34
2018-12-06T23:46:05.306Z,77.24
2018-12-06T23:48:34.349Z,77.53
2018-12-06T23:51:19.162Z,77.45
2018-12-06T23:53:48.220Z,77.49
2018-12-06T23:56:17.266Z,77.46
2018-12-06T23:58:46.339Z,77.24
